sensor_id;sensor_type;location;lat;lon;timestamp;P1;durP1;ratioP1;P2;durP2;ratioP2
71771;SDS011;59606;52.138;5.424;2022-11-15T00:00:53;33.83;;;11.90;;
71771;SDS011;59606;52.138;5.424;2022-11-15T00:03:22;27.25;;;10.07;;
71771;SDS011;59606;52.138;5.424;2022-11-15T00:05:49;28.88;;;11.75;;
71771;SDS011;59606;52.138;5.424;2022-11-15T00:08:16;33.07;;;12.07;;
71771;SDS011;59606;52.138;5.424;2022-11-15T00:10:43;27.27;;;11.60;;
71771;SDS011;59606;52.138;5.424;2022-11-15T00:13:19;32.70;;;11.52;;
71771;SDS011;59606;52.138;5.424;2022-11-15T00:15:46;30.98;;;11.50;;
71771;SDS011;59606;52.138;5.424;2022-11-15T00:18:12;34.70;;;12.70;;
71771;SDS011;59606;52.138;5.424;2022-11-15T00:20:39;28.33;;;11.83;;
71771;SDS011;59606;52.138;5.424;2022-11-15T00:23:06;35.60;;;13.82;;
71771;SDS011;59606;52.138;5.424;2022-11-15T00:25:33;34.90;;;13.68;;
71771;SDS011;59606;52.138;5.424;2022-11-15T00:28:00;38.95;;;12.52;;
71771;SDS011;59606;52.138;5.424;2022-11-15T00:30:27;36.60;;;12.65;;
71771;SDS011;59606;52.138;5.424;2022-11-15T00:32:54;43.83;;;13.47;;
71771;SDS011;59606;52.138;5.424;2022-11-15T00:35:21;37.70;;;12.18;;
71771;SDS011;59606;52.138;5.424;2022-11-15T00:37:48;37.83;;;13.38;;
71771;SDS011;59606;52.138;5.424;2022-11-15T00:40:14;39.63;;;12.23;;
71771;SDS011;59606;52.138;5.424;2022-11-15T00:42:41;40.45;;;13.98;;
71771;SDS011;59606;52.138;5.424;2022-11-15T00:45:08;38.13;;;14.80;;
71771;SDS011;59606;52.138;5.424;2022-11-15T00:47:35;38.50;;;13.52;;
71771;SDS011;59606;52.138;5.424;2022-11-15T00:50:02;41.40;;;13.65;;
71771;SDS011;59606;52.138;5.424;2022-11-15T00:52:28;45.58;;;15.70;;
71771;SDS011;59606;52.138;5.424;2022-11-15T00:54:55;41.15;;;14.82;;
71771;SDS011;59606;52.138;5.424;2022-11-15T00:57:21;42.77;;;13.97;;
71771;SDS011;59606;52.138;5.424;2022-11-15T00:59:48;44.92;;;14.85;;
71771;SDS011;59606;52.138;5.424;2022-11-15T01:02:14;43.15;;;13.50;;
71771;SDS011;59606;52.138;5.424;2022-11-15T01:04:40;39.08;;;14.70;;
71771;SDS011;59606;52.138;5.424;2022-11-15T01:07:07;38.45;;;13.38;;
71771;SDS011;59606;52.138;5.424;2022-11-15T01:09:33;42.37;;;13.73;;
71771;SDS011;59606;52.138;5.424;2022-11-15T01:12:00;39.67;;;14.80;;
71771;SDS011;59606;52.138;5.424;2022-11-15T01:14:26;43.80;;;15.48;;
71771;SDS011;59606;52.138;5.424;2022-11-15T01:16:53;39.42;;;15.07;;
71771;SDS011;59606;52.138;5.424;2022-11-15T01:19:19;38.80;;;13.30;;
71771;SDS011;59606;52.138;5.424;2022-11-15T01:21:48;40.97;;;14.33;;
71771;SDS011;59606;52.138;5.424;2022-11-15T01:24:15;36.30;;;13.43;;
71771;SDS011;59606;52.138;5.424;2022-11-15T01:26:42;36.92;;;14.05;;
71771;SDS011;59606;52.138;5.424;2022-11-15T01:29:08;38.13;;;13.93;;
71771;SDS011;59606;52.138;5.424;2022-11-15T01:31:35;37.25;;;14.25;;
71771;SDS011;59606;52.138;5.424;2022-11-15T01:34:01;36.93;;;12.90;;
71771;SDS011;59606;52.138;5.424;2022-11-15T01:36:28;43.35;;;13.45;;
71771;SDS011;59606;52.138;5.424;2022-11-15T01:38:55;35.63;;;13.13;;
71771;SDS011;59606;52.138;5.424;2022-11-15T01:41:24;45.88;;;14.27;;
71771;SDS011;59606;52.138;5.424;2022-11-15T01:43:53;36.58;;;13.02;;
71771;SDS011;59606;52.138;5.424;2022-11-15T01:46:27;41.30;;;13.70;;
71771;SDS011;59606;52.138;5.424;2022-11-15T01:48:57;37.58;;;13.85;;
71771;SDS011;59606;52.138;5.424;2022-11-15T01:51:29;32.88;;;14.00;;
71771;SDS011;59606;52.138;5.424;2022-11-15T01:53:59;38.33;;;13.00;;
71771;SDS011;59606;52.138;5.424;2022-11-15T01:56:31;37.90;;;13.25;;
71771;SDS011;59606;52.138;5.424;2022-11-15T01:59:03;39.17;;;14.07;;
71771;SDS011;59606;52.138;5.424;2022-11-15T02:01:32;36.58;;;13.13;;
71771;SDS011;59606;52.138;5.424;2022-11-15T02:04:11;37.28;;;13.43;;
71771;SDS011;59606;52.138;5.424;2022-11-15T02:06:39;39.67;;;13.80;;
71771;SDS011;59606;52.138;5.424;2022-11-15T02:09:07;34.22;;;13.18;;
71771;SDS011;59606;52.138;5.424;2022-11-15T02:11:33;36.40;;;13.47;;
71771;SDS011;59606;52.138;5.424;2022-11-15T02:14:00;41.42;;;13.45;;
71771;SDS011;59606;52.138;5.424;2022-11-15T02:16:40;36.65;;;13.63;;
71771;SDS011;59606;52.138;5.424;2022-11-15T02:19:31;33.47;;;12.73;;
71771;SDS011;59606;52.138;5.424;2022-11-15T02:25:01;39.00;;;14.13;;
71771;SDS011;59606;52.138;5.424;2022-11-15T02:30:29;37.00;;;13.65;;
71771;SDS011;59606;52.138;5.424;2022-11-15T02:33:02;33.95;;;13.95;;
71771;SDS011;59606;52.138;5.424;2022-11-15T02:35:43;32.42;;;14.13;;
71771;SDS011;59606;52.138;5.424;2022-11-15T02:40:53;39.05;;;14.60;;
71771;SDS011;59606;52.138;5.424;2022-11-15T02:43:47;33.65;;;13.70;;
71771;SDS011;59606;52.138;5.424;2022-11-15T02:46:41;30.05;;;12.88;;
71771;SDS011;59606;52.138;5.424;2022-11-15T02:49:31;32.35;;;14.30;;
71771;SDS011;59606;52.138;5.424;2022-11-15T02:52:00;34.00;;;13.73;;
71771;SDS011;59606;52.138;5.424;2022-11-15T02:54:31;38.47;;;14.40;;
71771;SDS011;59606;52.138;5.424;2022-11-15T02:57:01;31.23;;;13.43;;
71771;SDS011;59606;52.138;5.424;2022-11-15T03:02:18;33.10;;;13.82;;
71771;SDS011;59606;52.138;5.424;2022-11-15T03:04:57;29.83;;;13.47;;
71771;SDS011;59606;52.138;5.424;2022-11-15T03:10:07;29.95;;;12.82;;
71771;SDS011;59606;52.138;5.424;2022-11-15T03:12:41;28.80;;;12.32;;
71771;SDS011;59606;52.138;5.424;2022-11-15T03:15:20;36.35;;;13.10;;
71771;SDS011;59606;52.138;5.424;2022-11-15T03:18:01;32.47;;;13.97;;
71771;SDS011;59606;52.138;5.424;2022-11-15T03:20:30;33.13;;;12.82;;
71771;SDS011;59606;52.138;5.424;2022-11-15T03:23:08;34.17;;;14.25;;
71771;SDS011;59606;52.138;5.424;2022-11-15T03:25:40;30.73;;;13.18;;
71771;SDS011;59606;52.138;5.424;2022-11-15T03:28:10;29.45;;;13.13;;
71771;SDS011;59606;52.138;5.424;2022-11-15T03:30:42;29.13;;;13.13;;
71771;SDS011;59606;52.138;5.424;2022-11-15T03:33:12;32.25;;;13.75;;
71771;SDS011;59606;52.138;5.424;2022-11-15T03:35:42;29.50;;;12.40;;
71771;SDS011;59606;52.138;5.424;2022-11-15T03:40:51;31.02;;;13.48;;
71771;SDS011;59606;52.138;5.424;2022-11-15T03:46:14;26.52;;;12.73;;
71771;SDS011;59606;52.138;5.424;2022-11-15T03:48:50;28.58;;;13.13;;
71771;SDS011;59606;52.138;5.424;2022-11-15T03:51:20;33.47;;;12.65;;
71771;SDS011;59606;52.138;5.424;2022-11-15T03:53:47;29.17;;;12.52;;
71771;SDS011;59606;52.138;5.424;2022-11-15T03:56:14;28.87;;;12.90;;
71771;SDS011;59606;52.138;5.424;2022-11-15T03:58:40;33.88;;;13.55;;
71771;SDS011;59606;52.138;5.424;2022-11-15T04:01:06;27.83;;;12.35;;
71771;SDS011;59606;52.138;5.424;2022-11-15T04:03:33;33.90;;;12.95;;
71771;SDS011;59606;52.138;5.424;2022-11-15T04:06:00;27.45;;;12.40;;
71771;SDS011;59606;52.138;5.424;2022-11-15T04:08:26;29.53;;;13.23;;
71771;SDS011;59606;52.138;5.424;2022-11-15T04:10:53;32.97;;;14.13;;
71771;SDS011;59606;52.138;5.424;2022-11-15T04:13:19;27.45;;;12.40;;
71771;SDS011;59606;52.138;5.424;2022-11-15T04:15:46;29.52;;;14.10;;
71771;SDS011;59606;52.138;5.424;2022-11-15T04:18:12;23.88;;;12.43;;
71771;SDS011;59606;52.138;5.424;2022-11-15T04:20:39;27.73;;;13.10;;
71771;SDS011;59606;52.138;5.424;2022-11-15T04:23:24;28.35;;;12.77;;
71771;SDS011;59606;52.138;5.424;2022-11-15T04:26:13;27.75;;;12.50;;
71771;SDS011;59606;52.138;5.424;2022-11-15T04:28:41;26.13;;;12.32;;
71771;SDS011;59606;52.138;5.424;2022-11-15T04:31:27;29.65;;;11.98;;
71771;SDS011;59606;52.138;5.424;2022-11-15T04:33:53;24.97;;;12.17;;
71771;SDS011;59606;52.138;5.424;2022-11-15T04:36:20;28.67;;;13.15;;
71771;SDS011;59606;52.138;5.424;2022-11-15T04:39:06;31.98;;;12.60;;
71771;SDS011;59606;52.138;5.424;2022-11-15T04:41:33;30.20;;;12.75;;
71771;SDS011;59606;52.138;5.424;2022-11-15T04:44:00;32.25;;;12.85;;
71771;SDS011;59606;52.138;5.424;2022-11-15T04:46:26;25.33;;;12.20;;
71771;SDS011;59606;52.138;5.424;2022-11-15T04:48:53;25.67;;;11.68;;
71771;SDS011;59606;52.138;5.424;2022-11-15T04:51:24;28.92;;;12.98;;
71771;SDS011;59606;52.138;5.424;2022-11-15T04:53:50;30.17;;;12.32;;
71771;SDS011;59606;52.138;5.424;2022-11-15T04:56:17;25.77;;;11.93;;
71771;SDS011;59606;52.138;5.424;2022-11-15T04:58:43;27.20;;;13.93;;
71771;SDS011;59606;52.138;5.424;2022-11-15T05:01:10;26.17;;;12.02;;
71771;SDS011;59606;52.138;5.424;2022-11-15T05:03:40;26.55;;;12.32;;
71771;SDS011;59606;52.138;5.424;2022-11-15T05:06:26;23.35;;;11.68;;
71771;SDS011;59606;52.138;5.424;2022-11-15T05:08:53;25.60;;;12.57;;
71771;SDS011;59606;52.138;5.424;2022-11-15T05:11:20;25.37;;;12.37;;
71771;SDS011;59606;52.138;5.424;2022-11-15T05:13:47;28.67;;;11.90;;
71771;SDS011;59606;52.138;5.424;2022-11-15T05:16:13;28.58;;;13.32;;
71771;SDS011;59606;52.138;5.424;2022-11-15T05:18:40;29.00;;;13.35;;
71771;SDS011;59606;52.138;5.424;2022-11-15T05:21:07;29.38;;;13.30;;
71771;SDS011;59606;52.138;5.424;2022-11-15T05:23:36;26.93;;;11.70;;
71771;SDS011;59606;52.138;5.424;2022-11-15T05:26:03;30.88;;;13.20;;
71771;SDS011;59606;52.138;5.424;2022-11-15T05:28:35;24.55;;;11.15;;
71771;SDS011;59606;52.138;5.424;2022-11-15T05:31:03;30.90;;;12.85;;
71771;SDS011;59606;52.138;5.424;2022-11-15T05:33:31;27.75;;;12.40;;
71771;SDS011;59606;52.138;5.424;2022-11-15T05:38:34;28.10;;;11.85;;
71771;SDS011;59606;52.138;5.424;2022-11-15T05:41:00;31.60;;;13.63;;
71771;SDS011;59606;52.138;5.424;2022-11-15T05:43:29;26.67;;;11.15;;
71771;SDS011;59606;52.138;5.424;2022-11-15T05:45:59;25.20;;;12.38;;
71771;SDS011;59606;52.138;5.424;2022-11-15T05:48:26;29.27;;;12.27;;
71771;SDS011;59606;52.138;5.424;2022-11-15T05:50:53;26.48;;;11.93;;
71771;SDS011;59606;52.138;5.424;2022-11-15T05:53:20;30.20;;;12.63;;
71771;SDS011;59606;52.138;5.424;2022-11-15T05:55:49;26.13;;;13.20;;
71771;SDS011;59606;52.138;5.424;2022-11-15T05:58:16;29.50;;;12.63;;
71771;SDS011;59606;52.138;5.424;2022-11-15T06:00:44;27.23;;;12.63;;
71771;SDS011;59606;52.138;5.424;2022-11-15T06:03:11;24.98;;;12.85;;
71771;SDS011;59606;52.138;5.424;2022-11-15T06:05:37;27.15;;;12.30;;
71771;SDS011;59606;52.138;5.424;2022-11-15T06:08:04;26.17;;;12.43;;
71771;SDS011;59606;52.138;5.424;2022-11-15T06:10:30;31.05;;;12.68;;
71771;SDS011;59606;52.138;5.424;2022-11-15T06:12:58;27.40;;;12.27;;
71771;SDS011;59606;52.138;5.424;2022-11-15T06:15:28;36.45;;;13.60;;
71771;SDS011;59606;52.138;5.424;2022-11-15T06:17:58;29.40;;;13.98;;
71771;SDS011;59606;52.138;5.424;2022-11-15T06:20:25;28.98;;;13.02;;
71771;SDS011;59606;52.138;5.424;2022-11-15T06:22:57;28.40;;;12.63;;
71771;SDS011;59606;52.138;5.424;2022-11-15T06:25:28;31.30;;;13.63;;
71771;SDS011;59606;52.138;5.424;2022-11-15T06:27:56;34.75;;;13.43;;
71771;SDS011;59606;52.138;5.424;2022-11-15T06:30:24;24.70;;;12.68;;
71771;SDS011;59606;52.138;5.424;2022-11-15T06:32:51;26.27;;;12.43;;
71771;SDS011;59606;52.138;5.424;2022-11-15T06:35:24;30.50;;;12.43;;
71771;SDS011;59606;52.138;5.424;2022-11-15T06:37:51;23.47;;;11.83;;
71771;SDS011;59606;52.138;5.424;2022-11-15T06:40:17;26.85;;;12.25;;
71771;SDS011;59606;52.138;5.424;2022-11-15T06:42:44;28.38;;;12.93;;
71771;SDS011;59606;52.138;5.424;2022-11-15T06:45:10;26.30;;;12.63;;
71771;SDS011;59606;52.138;5.424;2022-11-15T06:47:44;30.48;;;11.98;;
71771;SDS011;59606;52.138;5.424;2022-11-15T06:50:11;27.10;;;11.57;;
71771;SDS011;59606;52.138;5.424;2022-11-15T06:52:38;26.92;;;13.50;;
71771;SDS011;59606;52.138;5.424;2022-11-15T06:55:04;30.50;;;13.00;;
71771;SDS011;59606;52.138;5.424;2022-11-15T06:57:31;28.70;;;12.90;;
71771;SDS011;59606;52.138;5.424;2022-11-15T06:59:58;28.27;;;12.65;;
71771;SDS011;59606;52.138;5.424;2022-11-15T07:02:24;28.67;;;13.00;;
71771;SDS011;59606;52.138;5.424;2022-11-15T07:04:51;28.60;;;14.13;;
71771;SDS011;59606;52.138;5.424;2022-11-15T07:07:18;28.05;;;13.18;;
71771;SDS011;59606;52.138;5.424;2022-11-15T07:09:44;28.42;;;12.75;;
71771;SDS011;59606;52.138;5.424;2022-11-15T07:12:13;25.52;;;12.85;;
71771;SDS011;59606;52.138;5.424;2022-11-15T07:14:40;27.67;;;12.67;;
71771;SDS011;59606;52.138;5.424;2022-11-15T07:17:07;29.65;;;12.73;;
71771;SDS011;59606;52.138;5.424;2022-11-15T07:19:33;31.80;;;13.25;;
71771;SDS011;59606;52.138;5.424;2022-11-15T07:22:00;25.35;;;11.60;;
71771;SDS011;59606;52.138;5.424;2022-11-15T07:24:26;25.65;;;12.45;;
71771;SDS011;59606;52.138;5.424;2022-11-15T07:26:53;27.63;;;12.00;;
71771;SDS011;59606;52.138;5.424;2022-11-15T07:29:20;28.52;;;12.23;;
71771;SDS011;59606;52.138;5.424;2022-11-15T07:31:46;31.50;;;13.07;;
71771;SDS011;59606;52.138;5.424;2022-11-15T07:34:13;28.27;;;12.00;;
71771;SDS011;59606;52.138;5.424;2022-11-15T07:36:40;28.30;;;13.60;;
71771;SDS011;59606;52.138;5.424;2022-11-15T07:39:06;24.43;;;11.47;;
71771;SDS011;59606;52.138;5.424;2022-11-15T07:41:32;29.23;;;11.65;;
71771;SDS011;59606;52.138;5.424;2022-11-15T07:43:59;28.73;;;12.15;;
71771;SDS011;59606;52.138;5.424;2022-11-15T07:46:26;27.00;;;11.15;;
71771;SDS011;59606;52.138;5.424;2022-11-15T07:48:52;25.70;;;11.65;;
71771;SDS011;59606;52.138;5.424;2022-11-15T07:51:19;27.50;;;12.53;;
71771;SDS011;59606;52.138;5.424;2022-11-15T07:53:46;31.05;;;12.32;;
71771;SDS011;59606;52.138;5.424;2022-11-15T07:56:12;24.65;;;12.20;;
71771;SDS011;59606;52.138;5.424;2022-11-15T07:58:39;30.70;;;12.50;;
71771;SDS011;59606;52.138;5.424;2022-11-15T08:01:07;25.70;;;11.45;;
71771;SDS011;59606;52.138;5.424;2022-11-15T08:03:35;28.93;;;11.70;;
71771;SDS011;59606;52.138;5.424;2022-11-15T08:06:02;32.65;;;11.45;;
71771;SDS011;59606;52.138;5.424;2022-11-15T08:08:29;25.63;;;10.70;;
71771;SDS011;59606;52.138;5.424;2022-11-15T08:10:57;24.00;;;11.32;;
71771;SDS011;59606;52.138;5.424;2022-11-15T08:13:24;28.25;;;11.18;;
71771;SDS011;59606;52.138;5.424;2022-11-15T08:15:50;25.77;;;10.90;;
71771;SDS011;59606;52.138;5.424;2022-11-15T08:18:22;23.33;;;10.50;;
71771;SDS011;59606;52.138;5.424;2022-11-15T08:20:49;29.98;;;11.02;;
71771;SDS011;59606;52.138;5.424;2022-11-15T08:23:15;25.05;;;9.80;;
71771;SDS011;59606;52.138;5.424;2022-11-15T08:25:42;20.05;;;9.85;;
71771;SDS011;59606;52.138;5.424;2022-11-15T08:28:09;23.67;;;9.53;;
71771;SDS011;59606;52.138;5.424;2022-11-15T08:30:37;22.80;;;10.40;;
71771;SDS011;59606;52.138;5.424;2022-11-15T08:33:10;23.23;;;9.32;;
71771;SDS011;59606;52.138;5.424;2022-11-15T08:35:39;18.83;;;9.57;;
71771;SDS011;59606;52.138;5.424;2022-11-15T08:38:06;20.13;;;9.10;;
71771;SDS011;59606;52.138;5.424;2022-11-15T08:40:33;18.57;;;9.30;;
71771;SDS011;59606;52.138;5.424;2022-11-15T08:42:59;21.15;;;9.18;;
71771;SDS011;59606;52.138;5.424;2022-11-15T08:45:29;19.85;;;9.73;;
71771;SDS011;59606;52.138;5.424;2022-11-15T08:47:56;22.40;;;9.85;;
71771;SDS011;59606;52.138;5.424;2022-11-15T08:50:22;18.45;;;9.60;;
71771;SDS011;59606;52.138;5.424;2022-11-15T08:52:51;21.20;;;10.60;;
71771;SDS011;59606;52.138;5.424;2022-11-15T08:55:17;22.63;;;9.82;;
71771;SDS011;59606;52.138;5.424;2022-11-15T08:57:48;23.25;;;10.23;;
71771;SDS011;59606;52.138;5.424;2022-11-15T09:00:15;20.35;;;10.30;;
71771;SDS011;59606;52.138;5.424;2022-11-15T09:02:41;26.40;;;10.50;;
71771;SDS011;59606;52.138;5.424;2022-11-15T09:05:08;21.90;;;9.77;;
71771;SDS011;59606;52.138;5.424;2022-11-15T09:07:34;23.33;;;9.57;;
71771;SDS011;59606;52.138;5.424;2022-11-15T09:10:01;23.10;;;10.07;;
71771;SDS011;59606;52.138;5.424;2022-11-15T09:12:28;21.85;;;9.93;;
71771;SDS011;59606;52.138;5.424;2022-11-15T09:14:55;20.85;;;8.95;;
71771;SDS011;59606;52.138;5.424;2022-11-15T09:17:21;18.30;;;9.50;;
71771;SDS011;59606;52.138;5.424;2022-11-15T09:19:50;21.67;;;9.65;;
71771;SDS011;59606;52.138;5.424;2022-11-15T09:22:16;21.77;;;8.98;;
71771;SDS011;59606;52.138;5.424;2022-11-15T09:24:44;19.77;;;9.43;;
71771;SDS011;59606;52.138;5.424;2022-11-15T09:27:10;21.17;;;9.07;;
71771;SDS011;59606;52.138;5.424;2022-11-15T09:29:37;20.47;;;8.90;;
71771;SDS011;59606;52.138;5.424;2022-11-15T09:32:03;24.23;;;8.82;;
71771;SDS011;59606;52.138;5.424;2022-11-15T09:34:30;18.17;;;8.55;;
71771;SDS011;59606;52.138;5.424;2022-11-15T09:36:56;15.75;;;7.70;;
71771;SDS011;59606;52.138;5.424;2022-11-15T09:39:23;14.35;;;6.93;;
71771;SDS011;59606;52.138;5.424;2022-11-15T09:44:56;16.13;;;7.68;;
71771;SDS011;59606;52.138;5.424;2022-11-15T09:50:14;11.90;;;6.30;;
71771;SDS011;59606;52.138;5.424;2022-11-15T09:52:44;13.18;;;6.80;;
71771;SDS011;59606;52.138;5.424;2022-11-15T09:55:12;11.87;;;5.87;;
71771;SDS011;59606;52.138;5.424;2022-11-15T09:57:49;15.68;;;6.82;;
71771;SDS011;59606;52.138;5.424;2022-11-15T10:03:16;12.68;;;6.05;;
71771;SDS011;59606;52.138;5.424;2022-11-15T10:05:47;11.27;;;5.53;;
71771;SDS011;59606;52.138;5.424;2022-11-15T10:11:09;11.82;;;5.45;;
71771;SDS011;59606;52.138;5.424;2022-11-15T10:13:59;13.90;;;6.20;;
71771;SDS011;59606;52.138;5.424;2022-11-15T10:27:43;8.48;;;3.17;;
71771;SDS011;59606;52.138;5.424;2022-11-15T10:30:14;9.80;;;3.72;;
71771;SDS011;59606;52.138;5.424;2022-11-15T10:32:43;7.07;;;3.20;;
71771;SDS011;59606;52.138;5.424;2022-11-15T10:35:25;6.33;;;3.50;;
71771;SDS011;59606;52.138;5.424;2022-11-15T10:38:07;8.30;;;3.63;;
71771;SDS011;59606;52.138;5.424;2022-11-15T10:40:38;7.82;;;3.33;;
71771;SDS011;59606;52.138;5.424;2022-11-15T10:45:36;5.93;;;3.28;;
71771;SDS011;59606;52.138;5.424;2022-11-15T10:50:40;7.28;;;3.17;;
71771;SDS011;59606;52.138;5.424;2022-11-15T10:53:51;6.18;;;3.17;;
71771;SDS011;59606;52.138;5.424;2022-11-15T10:56:06;8.60;;;3.03;;
71771;SDS011;59606;52.138;5.424;2022-11-15T10:58:39;5.63;;;2.63;;
71771;SDS011;59606;52.138;5.424;2022-11-15T11:01:19;7.73;;;2.63;;
71771;SDS011;59606;52.138;5.424;2022-11-15T11:04:00;7.07;;;2.95;;
71771;SDS011;59606;52.138;5.424;2022-11-15T11:06:28;5.75;;;2.58;;
71771;SDS011;59606;52.138;5.424;2022-11-15T11:09:00;4.85;;;2.65;;
71771;SDS011;59606;52.138;5.424;2022-11-15T11:11:43;6.75;;;2.38;;
71771;SDS011;59606;52.138;5.424;2022-11-15T11:14:21;6.70;;;2.40;;
71771;SDS011;59606;52.138;5.424;2022-11-15T11:16:59;5.32;;;2.60;;
71771;SDS011;59606;52.138;5.424;2022-11-15T11:28:12;8.43;;;2.43;;
71771;SDS011;59606;52.138;5.424;2022-11-15T11:30:54;4.55;;;2.42;;
71771;SDS011;59606;52.138;5.424;2022-11-15T11:36:25;5.07;;;2.25;;
71771;SDS011;59606;52.138;5.424;2022-11-15T11:41:56;5.17;;;2.10;;
71771;SDS011;59606;52.138;5.424;2022-11-15T11:47:20;6.20;;;2.35;;
71771;SDS011;59606;52.138;5.424;2022-11-15T11:52:33;5.22;;;2.28;;
71771;SDS011;59606;52.138;5.424;2022-11-15T12:01:04;6.35;;;1.85;;
71771;SDS011;59606;52.138;5.424;2022-11-15T12:03:40;5.55;;;1.75;;
71771;SDS011;59606;52.138;5.424;2022-11-15T12:09:10;5.30;;;1.40;;
71771;SDS011;59606;52.138;5.424;2022-11-15T12:12:08;5.65;;;1.75;;
71771;SDS011;59606;52.138;5.424;2022-11-15T12:14:46;5.22;;;1.20;;
71771;SDS011;59606;52.138;5.424;2022-11-15T12:17:19;2.47;;;0.93;;
71771;SDS011;59606;52.138;5.424;2022-11-15T12:19:51;7.28;;;1.20;;
71771;SDS011;59606;52.138;5.424;2022-11-15T12:22:45;5.13;;;1.03;;
71771;SDS011;59606;52.138;5.424;2022-11-15T12:27:50;4.10;;;0.95;;
71771;SDS011;59606;52.138;5.424;2022-11-15T12:30:22;7.22;;;0.90;;
71771;SDS011;59606;52.138;5.424;2022-11-15T12:32:58;10.75;;;1.40;;
71771;SDS011;59606;52.138;5.424;2022-11-15T12:35:28;1.93;;;0.80;;
71771;SDS011;59606;52.138;5.424;2022-11-15T12:38:04;3.70;;;0.98;;
71771;SDS011;59606;52.138;5.424;2022-11-15T12:40:37;10.45;;;1.20;;
71771;SDS011;59606;52.138;5.424;2022-11-15T12:45:40;3.25;;;0.90;;
71771;SDS011;59606;52.138;5.424;2022-11-15T12:50:52;3.80;;;0.98;;
71771;SDS011;59606;52.138;5.424;2022-11-15T13:04:13;3.85;;;1.52;;
71771;SDS011;59606;52.138;5.424;2022-11-15T13:06:50;3.28;;;1.20;;
71771;SDS011;59606;52.138;5.424;2022-11-15T13:12:00;2.60;;;0.93;;
71771;SDS011;59606;52.138;5.424;2022-11-15T13:17:03;4.55;;;1.15;;
71771;SDS011;59606;52.138;5.424;2022-11-15T13:19:45;5.68;;;1.17;;
71771;SDS011;59606;52.138;5.424;2022-11-15T13:22:13;3.53;;;1.10;;
71771;SDS011;59606;52.138;5.424;2022-11-15T13:25:00;7.88;;;1.42;;
71771;SDS011;59606;52.138;5.424;2022-11-15T13:27:27;9.53;;;1.03;;
71771;SDS011;59606;52.138;5.424;2022-11-15T13:29:54;5.07;;;1.63;;
71771;SDS011;59606;52.138;5.424;2022-11-15T13:32:21;6.40;;;1.40;;
71771;SDS011;59606;52.138;5.424;2022-11-15T13:34:49;4.05;;;1.10;;
71771;SDS011;59606;52.138;5.424;2022-11-15T13:39:48;7.03;;;1.30;;
71771;SDS011;59606;52.138;5.424;2022-11-15T13:42:19;5.93;;;1.33;;
71771;SDS011;59606;52.138;5.424;2022-11-15T13:45:00;1.75;;;0.82;;
71771;SDS011;59606;52.138;5.424;2022-11-15T13:47:31;5.45;;;1.73;;
71771;SDS011;59606;52.138;5.424;2022-11-15T13:49:58;6.65;;;1.60;;
71771;SDS011;59606;52.138;5.424;2022-11-15T13:52:27;6.50;;;2.27;;
71771;SDS011;59606;52.138;5.424;2022-11-15T13:55:03;3.50;;;1.60;;
71771;SDS011;59606;52.138;5.424;2022-11-15T13:57:49;6.32;;;1.70;;
71771;SDS011;59606;52.138;5.424;2022-11-15T14:00:34;4.65;;;1.60;;
71771;SDS011;59606;52.138;5.424;2022-11-15T14:03:17;3.45;;;1.40;;
71771;SDS011;59606;52.138;5.424;2022-11-15T14:08:29;3.75;;;1.10;;
71771;SDS011;59606;52.138;5.424;2022-11-15T14:11:07;4.22;;;1.00;;
71771;SDS011;59606;52.138;5.424;2022-11-15T14:16:41;2.88;;;1.05;;
71771;SDS011;59606;52.138;5.424;2022-11-15T14:19:33;5.27;;;1.37;;
71771;SDS011;59606;52.138;5.424;2022-11-15T14:22:34;7.55;;;1.52;;
71771;SDS011;59606;52.138;5.424;2022-11-15T14:25:15;8.60;;;2.03;;
71771;SDS011;59606;52.138;5.424;2022-11-15T14:28:08;3.22;;;1.08;;
71771;SDS011;59606;52.138;5.424;2022-11-15T14:30:35;3.88;;;1.25;;
71771;SDS011;59606;52.138;5.424;2022-11-15T14:33:11;4.33;;;1.13;;
71771;SDS011;59606;52.138;5.424;2022-11-15T14:35:44;2.47;;;0.80;;
71771;SDS011;59606;52.138;5.424;2022-11-15T14:38:11;3.78;;;1.10;;
71771;SDS011;59606;52.138;5.424;2022-11-15T14:40:37;2.88;;;1.00;;
71771;SDS011;59606;52.138;5.424;2022-11-15T14:43:07;2.25;;;0.85;;
71771;SDS011;59606;52.138;5.424;2022-11-15T14:45:34;2.87;;;1.10;;
71771;SDS011;59606;52.138;5.424;2022-11-15T14:48:01;4.43;;;1.00;;
71771;SDS011;59606;52.138;5.424;2022-11-15T14:50:27;2.63;;;0.80;;
71771;SDS011;59606;52.138;5.424;2022-11-15T14:52:54;6.40;;;1.30;;
71771;SDS011;59606;52.138;5.424;2022-11-15T14:55:29;4.63;;;1.35;;
71771;SDS011;59606;52.138;5.424;2022-11-15T14:58:03;6.63;;;1.07;;
71771;SDS011;59606;52.138;5.424;2022-11-15T15:00:30;4.03;;;1.17;;
71771;SDS011;59606;52.138;5.424;2022-11-15T15:03:00;5.53;;;0.90;;
71771;SDS011;59606;52.138;5.424;2022-11-15T15:05:40;2.78;;;0.98;;
71771;SDS011;59606;52.138;5.424;2022-11-15T15:08:09;3.53;;;1.00;;
71771;SDS011;59606;52.138;5.424;2022-11-15T15:10:38;2.77;;;0.60;;
71771;SDS011;59606;52.138;5.424;2022-11-15T15:13:15;7.60;;;0.90;;
71771;SDS011;59606;52.138;5.424;2022-11-15T15:16:07;4.03;;;1.00;;
71771;SDS011;59606;52.138;5.424;2022-11-15T15:18:34;4.53;;;1.23;;
71771;SDS011;59606;52.138;5.424;2022-11-15T15:21:01;4.22;;;1.20;;
71771;SDS011;59606;52.138;5.424;2022-11-15T15:23:33;2.40;;;0.60;;
71771;SDS011;59606;52.138;5.424;2022-11-15T15:26:01;2.67;;;1.35;;
71771;SDS011;59606;52.138;5.424;2022-11-15T15:28:29;6.10;;;1.20;;
71771;SDS011;59606;52.138;5.424;2022-11-15T15:31:00;11.13;;;1.67;;
71771;SDS011;59606;52.138;5.424;2022-11-15T15:33:29;5.32;;;1.75;;
71771;SDS011;59606;52.138;5.424;2022-11-15T15:35:56;3.27;;;1.60;;
71771;SDS011;59606;52.138;5.424;2022-11-15T15:38:22;6.25;;;1.65;;
71771;SDS011;59606;52.138;5.424;2022-11-15T15:40:49;2.95;;;1.27;;
71771;SDS011;59606;52.138;5.424;2022-11-15T15:43:17;6.00;;;2.50;;
71771;SDS011;59606;52.138;5.424;2022-11-15T15:45:46;8.35;;;4.03;;
71771;SDS011;59606;52.138;5.424;2022-11-15T15:48:13;24.27;;;10.47;;
71771;SDS011;59606;52.138;5.424;2022-11-15T15:50:41;10.90;;;5.32;;
71771;SDS011;59606;52.138;5.424;2022-11-15T15:53:11;5.10;;;2.03;;
71771;SDS011;59606;52.138;5.424;2022-11-15T15:55:39;8.48;;;3.03;;
71771;SDS011;59606;52.138;5.424;2022-11-15T15:58:05;14.05;;;5.15;;
71771;SDS011;59606;52.138;5.424;2022-11-15T16:00:32;6.53;;;3.20;;
71771;SDS011;59606;52.138;5.424;2022-11-15T16:02:59;6.63;;;2.58;;
71771;SDS011;59606;52.138;5.424;2022-11-15T16:05:26;12.73;;;3.63;;
71771;SDS011;59606;52.138;5.424;2022-11-15T16:07:52;17.80;;;6.90;;
71771;SDS011;59606;52.138;5.424;2022-11-15T16:10:26;9.18;;;2.60;;
71771;SDS011;59606;52.138;5.424;2022-11-15T16:12:54;2.40;;;1.07;;
71771;SDS011;59606;52.138;5.424;2022-11-15T16:15:22;3.08;;;1.23;;
71771;SDS011;59606;52.138;5.424;2022-11-15T16:17:56;3.03;;;2.03;;
71771;SDS011;59606;52.138;5.424;2022-11-15T16:22:58;2.63;;;1.60;;
71771;SDS011;59606;52.138;5.424;2022-11-15T16:25:51;2.40;;;1.23;;
71771;SDS011;59606;52.138;5.424;2022-11-15T16:28:20;4.68;;;1.30;;
71771;SDS011;59606;52.138;5.424;2022-11-15T16:30:49;3.22;;;1.67;;
71771;SDS011;59606;52.138;5.424;2022-11-15T16:33:26;6.90;;;1.63;;
71771;SDS011;59606;52.138;5.424;2022-11-15T16:35:52;5.38;;;1.88;;
71771;SDS011;59606;52.138;5.424;2022-11-15T16:38:19;8.47;;;2.73;;
71771;SDS011;59606;52.138;5.424;2022-11-15T16:40:45;5.97;;;2.15;;
71771;SDS011;59606;52.138;5.424;2022-11-15T16:43:12;5.40;;;3.63;;